Time;durP1;ratioP1;P1;durP2;ratioP2;P2;SDS_P1;SDS_P2;PMS_P1;PMS_P2;Temp;Humidity;BMP_temperature;BMP_pressure;BME280_temperature;BME280_humidity;BME280_pressure;Samples;Min_cycle;Max_cycle;Signal;HPM_P1;HPM_P2
2022/06/22 00:00:15;;;;;;;5.63;4.63;;;22.20;60.40;;;;;;5076373;28;20048;-45
2022/06/22 00:02:42;;;;;;;7.15;4.63;;;22.20;60.40;;;;;;5076669;28;20563;-39
2022/06/22 00:05:18;;;;;;;9.02;6.05;;;22.20;60.30;;;;;;5078360;28;20059;-39
2022/06/22 00:07:48;;;;;;;8.02;5.88;;;22.20;58.70;;;;;;5074732;28;20093;-39
2022/06/22 00:10:15;;;;;;;8.85;6.72;;;22.20;58.10;;;;;;5075238;28;20052;-40
2022/06/22 00:12:41;;;;;;;8.00;6.33;;;22.20;58.10;;;;;;5072453;28;20033;-39
2022/06/22 00:15:32;;;;;;;9.68;7.03;;;22.20;58.90;;;;;;5078236;28;20051;-40
2022/06/22 00:17:59;;;;;;;9.60;7.15;;;22.20;59.30;;;;;;5070874;28;21707;-40
2022/06/22 00:20:30;;;;;;;10.88;7.95;;;22.20;59.60;;;;;;5058133;28;20021;-40
2022/06/22 00:23:00;;;;;;;11.35;8.18;;;22.20;60.40;;;;;;5072972;28;20039;-40
2022/06/22 00:25:30;;;;;;;10.40;7.70;;;22.20;59.80;;;;;;5075609;28;20106;-40
2022/06/22 00:28:28;;;;;;;10.52;8.10;;;22.20;59.80;;;;;;5075184;28;20044;-39
2022/06/22 00:31:33;;;;;;;10.23;8.02;;;22.20;59.80;;;;;;5074270;28;20059;-39
2022/06/22 00:34:23;;;;;;;11.27;8.50;;;22.20;60.00;;;;;;5072753;28;20071;-40
2022/06/22 00:37:12;;;;;;;10.63;8.05;;;22.20;60.10;;;;;;5068724;28;20821;-39
2022/06/22 00:39:43;;;;;;;10.05;8.07;;;22.20;60.00;;;;;;5077619;28;20016;-39
2022/06/22 00:42:15;;;;;;;9.82;7.78;;;22.20;59.90;;;;;;5076854;28;20044;-39
2022/06/22 00:45:07;;;;;;;9.65;7.63;;;22.20;59.90;;;;;;5072556;28;20316;-39
2022/06/22 00:47:43;;;;;;;9.88;7.53;;;22.30;59.90;;;;;;5077023;28;20047;-39
2022/06/22 00:50:11;;;;;;;;;;;22.20;59.90;;;;;;5074183;28;20044;-40
2022/06/22 00:53:08;;;;;;;10.40;8.05;;;22.20;60.00;;;;;;5072295;28;20590;-39
2022/06/22 00:55:34;;;;;;;10.57;8.23;;;22.20;60.10;;;;;;5060290;28;20051;-38
2022/06/22 00:58:04;;;;;;;9.02;7.68;;;22.10;58.30;;;;;;5075885;28;20021;-39
2022/06/22 01:00:33;;;;;;;10.75;7.68;;;22.10;58.20;;;;;;5074998;28;20058;-37
2022/06/22 01:03:04;;;;;;;9.43;7.93;;;22.10;58.10;;;;;;5074013;28;20020;-37
2022/06/22 01:05:41;;;;;;;9.38;7.53;;;22.10;58.00;;;;;;5076974;28;20040;-39
2022/06/22 01:08:20;;;;;;;9.00;7.43;;;22.10;58.00;;;;;;5070683;28;20164;-37
2022/06/22 01:10:49;;;;;;;10.40;7.15;;;22.00;57.90;;;;;;5072335;28;20021;-38
2022/06/22 01:13:25;;;;;;;9.00;6.93;;;22.00;58.30;;;;;;5075146;28;20024;-38
2022/06/22 01:16:08;;;;;;;9.85;7.22;;;22.00;58.10;;;;;;5074018;28;20116;-37
2022/06/22 01:18:40;;;;;;;7.82;6.88;;;22.00;57.90;;;;;;5077221;28;20028;-37
2022/06/22 01:21:19;;;;;;;7.45;6.55;;;22.00;57.70;;;;;;5074780;28;20020;-37
2022/06/22 01:24:13;;;;;;;8.60;6.82;;;22.00;57.70;;;;;;5074573;28;20033;-38
2022/06/22 01:27:09;;;;;;;7.78;6.38;;;21.90;57.60;;;;;;5075012;28;20038;-37
2022/06/22 01:29:35;;;;;;;8.02;6.63;;;21.90;57.50;;;;;;5072303;28;20025;-37
2022/06/22 01:32:13;;;;;;;7.72;6.28;;;21.90;57.40;;;;;;5076318;28;20637;-38
2022/06/22 01:34:47;;;;;;;6.70;5.75;;;21.90;57.30;;;;;;5054951;28;20025;-37
2022/06/22 01:37:16;;;;;;;7.00;5.97;;;21.90;57.20;;;;;;5074551;28;20922;-37
2022/06/22 01:39:42;;;;;;;6.97;5.82;;;21.90;57.10;;;;;;5052510;28;20036;-37
2022/06/22 01:42:19;;;;;;;8.40;5.85;;;21.90;57.00;;;;;;5074920;28;20052;-37
2022/06/22 01:44:49;;;;;;;7.85;5.47;;;21.80;57.00;;;;;;5074022;28;20124;-38
2022/06/22 01:47:25;;;;;;;6.50;5.30;;;21.80;56.90;;;;;;5075258;28;20028;-38
2022/06/22 01:49:59;;;;;;;7.05;5.47;;;21.80;56.90;;;;;;5073879;28;20033;-37
2022/06/22 01:53:04;;;;;;;6.28;5.40;;;21.80;56.90;;;;;;5075351;28;20088;-38
2022/06/22 01:55:42;;;;;;;7.65;5.65;;;21.70;57.40;;;;;;5075778;28;20048;-37
2022/06/22 01:58:20;;;;;;;6.78;5.40;;;21.70;56.90;;;;;;5071413;28;20044;-38
2022/06/22 02:00:59;;;;;;;5.88;5.20;;;21.70;56.80;;;;;;5072263;28;20020;-39
2022/06/22 02:03:56;;;;;;;6.05;4.97;;;21.70;56.80;;;;;;5077916;28;20036;-38
2022/06/22 02:09:15;;;;;;;5.53;4.75;;;21.70;56.80;;;;;;5056786;28;20496;-38
2022/06/22 02:11:43;;;;;;;;;;;21.60;56.70;;;;;;5075163;28;20028;-38
2022/06/22 02:14:30;;;;;;;5.72;4.82;;;21.60;56.70;;;;;;5075187;28;19915;-38
2022/06/22 02:16:58;;;;;;;5.13;4.60;;;21.60;56.60;;;;;;5076991;28;20054;-38
2022/06/22 02:19:27;;;;;;;5.40;4.25;;;21.60;56.70;;;;;;5057347;28;20025;-38
2022/06/22 02:21:58;;;;;;;5.32;4.60;;;21.50;56.70;;;;;;5073331;28;20027;-39
2022/06/22 02:24:46;;;;;;;5.85;4.70;;;21.50;56.70;;;;;;5076805;28;20088;-37
2022/06/22 02:27:20;;;;;;;4.93;4.20;;;21.60;58.20;;;;;;5074171;28;20035;-37
2022/06/22 02:29:49;;;;;;;8.77;4.80;;;21.70;58.50;;;;;;5076649;28;20051;-38
2022/06/22 02:32:17;;;;;;;6.38;4.43;;;21.80;58.70;;;;;;5076326;28;20024;-38
2022/06/22 02:34:52;;;;;;;5.40;4.32;;;21.80;58.80;;;;;;5080332;28;20035;-38
2022/06/22 02:37:19;;;;;;;4.60;4.05;;;21.70;57.20;;;;;;5076898;28;20041;-38
2022/06/22 02:39:48;;;;;;;4.90;4.00;;;21.70;57.10;;;;;;5077124;28;20748;-38
2022/06/22 02:44:59;;;;;;;4.93;4.15;;;21.70;58.40;;;;;;5071473;28;20098;-37
2022/06/22 02:47:31;;;;;;;4.13;3.72;;;21.80;58.70;;;;;;5079268;28;20084;-38
2022/06/22 02:50:12;;;;;;;4.40;3.88;;;21.80;58.80;;;;;;5074199;28;20485;-37
2022/06/22 02:52:58;;;;;;;4.40;3.88;;;21.90;57.60;;;;;;5077010;28;20043;-37
2022/06/22 02:55:26;;;;;;;4.00;3.60;;;21.80;57.20;;;;;;5075121;28;20034;-38
2022/06/22 02:57:52;;;;;;;4.10;3.67;;;21.70;57.00;;;;;;5074420;28;20032;-38
2022/06/22 03:00:21;;;;;;;4.25;3.50;;;21.70;57.40;;;;;;5075593;28;20044;-37
2022/06/22 03:02:47;;;;;;;3.90;3.50;;;21.80;58.80;;;;;;5074316;28;20086;-38
2022/06/22 03:05:14;;;;;;;4.50;3.67;;;21.80;58.90;;;;;;5075626;28;20046;-40
2022/06/22 03:07:42;;;;;;;4.50;3.57;;;21.90;59.20;;;;;;5078698;28;20016;-38
2022/06/22 03:10:13;;;;;;;4.03;3.60;;;21.90;59.10;;;;;;5072675;28;20036;-38
2022/06/22 03:12:39;;;;;;;3.88;3.45;;;21.80;57.30;;;;;;5080787;28;20030;-38
2022/06/22 03:15:06;;;;;;;3.55;2.88;;;21.80;57.10;;;;;;5073144;28;20024;-38
2022/06/22 03:17:38;;;;;;;3.85;3.20;;;21.80;57.00;;;;;;5076391;28;20025;-38
2022/06/22 03:20:09;;;;;;;3.90;3.50;;;21.80;58.40;;;;;;5073838;28;20033;-39
2022/06/22 03:22:43;;;;;;;3.50;3.20;;;21.90;58.60;;;;;;5069284;28;20560;-38
2022/06/22 03:25:19;;;;;;;3.50;3.20;;;21.90;58.60;;;;;;5074045;28;20040;-38
2022/06/22 03:27:53;;;;;;;4.05;3.50;;;21.90;58.70;;;;;;5074019;28;20109;-38
2022/06/22 03:30:23;;;;;;;3.63;3.08;;;22.00;58.70;;;;;;5075601;28;20027;-37
2022/06/22 03:32:58;;;;;;;3.80;3.40;;;21.90;57.30;;;;;;5075957;28;20016;-37
2022/06/22 03:35:29;;;;;;;4.03;3.20;;;21.90;57.10;;;;;;5062042;28;20551;-38
2022/06/22 03:38:18;;;;;;;4.10;2.90;;;21.80;56.70;;;;;;5058480;28;20028;-38
2022/06/22 03:40:53;;;;;;;5.10;3.10;;;21.90;58.20;;;;;;5074315;28;20039;-38
2022/06/22 03:43:46;;;;;;;3.72;3.28;;;21.90;58.30;;;;;;5077153;28;20064;-38
2022/06/22 03:46:36;;;;;;;3.97;2.95;;;22.00;58.40;;;;;;5071678;28;20045;-37
2022/06/22 03:49:13;;;;;;;3.50;2.92;;;22.00;58.40;;;;;;5045579;28;20264;-38
2022/06/22 03:51:50;;;;;;;4.45;3.40;;;22.00;58.50;;;;;;5077084;28;20100;-38
2022/06/22 03:54:33;;;;;;;3.40;2.90;;;22.00;58.50;;;;;;5073695;28;20032;-37
2022/06/22 03:57:00;;;;;;;3.22;2.92;;;22.00;57.50;;;;;;5074515;28;20025;-37
2022/06/22 03:59:26;;;;;;;3.65;3.20;;;22.00;57.10;;;;;;5076045;28;20044;-38
2022/06/22 04:01:53;;;;;;;3.33;2.95;;;21.90;56.90;;;;;;5075857;28;20033;-39
2022/06/22 04:04:20;;;;;;;3.38;3.08;;;22.00;58.10;;;;;;5076822;28;20029;-38
2022/06/22 04:06:47;;;;;;;4.35;3.03;;;22.10;58.40;;;;;;5073983;28;20098;-38
2022/06/22 04:09:14;;;;;;;;;;;22.00;58.40;;;;;;5075875;28;20035;-38
2022/06/22 04:12:05;;;;;;;3.38;3.08;;;22.10;58.50;;;;;;5072955;28;19916;-38
2022/06/22 04:14:46;;;;;;;3.17;2.88;;;22.10;58.50;;;;;;5077375;28;20048;-38
2022/06/22 04:17:27;;;;;;;3.50;2.95;;;22.10;58.50;;;;;;5075409;28;20032;-38
2022/06/22 04:20:21;;;;;;;3.15;2.75;;;22.10;58.70;;;;;;5078011;28;20024;-38
2022/06/22 04:22:50;;;;;;;3.90;3.10;;;22.10;58.80;;;;;;5076487;28;20063;-38
2022/06/22 04:25:46;;;;;;;4.93;3.08;;;22.10;58.90;;;;;;5074301;28;20063;-38
2022/06/22 04:28:12;;;;;;;3.40;3.10;;;22.10;58.90;;;;;;5060985;28;20024;-38
2022/06/22 04:30:45;;;;;;;3.47;3.00;;;22.10;58.90;;;;;;5077627;28;20024;-38
2022/06/22 04:33:20;;;;;;;3.17;2.63;;;22.20;59.00;;;;;;5074830;28;20032;-38
2022/06/22 04:36:01;;;;;;;3.22;2.92;;;22.20;58.40;;;;;;5074159;28;20044;-37
2022/06/22 04:38:53;;;;;;;3.00;2.70;;;22.10;57.60;;;;;;5076284;28;20036;-37
2022/06/22 04:41:26;;;;;;;3.30;3.00;;;22.10;57.30;;;;;;5074689;28;21288;-38
2022/06/22 04:43:53;;;;;;;3.22;2.92;;;22.10;58.40;;;;;;5076231;28;20029;-39
2022/06/22 04:46:28;;;;;;;3.25;2.83;;;22.10;58.60;;;;;;5074092;28;20033;-38
2022/06/22 04:48:56;;;;;;;3.30;3.00;;;22.20;58.60;;;;;;5074355;28;20023;-38
2022/06/22 04:51:34;;;;;;;4.18;2.78;;;22.20;58.50;;;;;;5069398;28;20062;-39
2022/06/22 04:54:13;;;;;;;3.38;2.97;;;22.20;58.40;;;;;;5074593;28;20074;-38
2022/06/22 04:56:41;;;;;;;3.28;2.97;;;22.30;58.40;;;;;;5078472;28;20119;-38
2022/06/22 04:59:07;;;;;;;3.00;2.70;;;22.30;58.40;;;;;;5077037;28;20032;-38
2022/06/22 05:01:43;;;;;;;2.78;2.42;;;22.30;58.40;;;;;;5051575;28;20120;-42
2022/06/22 05:04:36;;;;;;;2.47;2.28;;;22.30;58.30;;;;;;5077835;28;20664;-41
2022/06/22 05:07:20;;;;;;;3.15;2.67;;;22.30;58.50;;;;;;5067404;28;20044;-42
2022/06/22 05:10:12;;;;;;;3.20;2.90;;;22.20;58.30;;;;;;5077135;28;20107;-40
2022/06/22 05:12:50;;;;;;;2.45;2.25;;;22.20;57.90;;;;;;5074151;28;20029;-41
2022/06/22 05:15:26;;;;;;;2.72;2.53;;;22.20;57.40;;;;;;5075618;28;20033;-40
2022/06/22 05:17:52;;;;;;;2.85;2.47;;;22.20;57.60;;;;;;5076112;28;20088;-40
2022/06/22 05:20:33;;;;;;;2.67;2.47;;;22.20;57.60;;;;;;5076717;28;20054;-39
2022/06/22 05:23:00;;;;;;;2.83;2.55;;;22.20;57.60;;;;;;5073740;28;20139;-41
2022/06/22 05:25:26;;;;;;;;;;;22.20;57.60;;;;;;5075437;28;20047;-41
2022/06/22 05:28:06;;;;;;;4.05;2.70;;;22.20;57.60;;;;;;5075923;28;19979;-40
2022/06/22 05:30:50;;;;;;;2.70;2.50;;;22.20;57.60;;;;;;5077345;28;20028;-41
2022/06/22 05:33:18;;;;;;;3.85;2.63;;;22.20;57.70;;;;;;5071490;28;20178;-41
2022/06/22 05:36:05;;;;;;;2.70;2.42;;;22.10;57.40;;;;;;5075289;28;20518;-41
2022/06/22 05:38:33;;;;;;;2.60;2.40;;;22.10;57.20;;;;;;5073446;28;20032;-41
2022/06/22 05:41:04;;;;;;;2.70;2.50;;;22.20;57.10;;;;;;5074452;28;20028;-42
2022/06/22 05:43:31;;;;;;;2.65;2.22;;;22.10;57.10;;;;;;5093229;28;20535;-48
2022/06/22 05:45:57;;;;;;;2.38;2.17;;;22.10;57.20;;;;;;5075560;28;20033;-42
2022/06/22 05:48:25;;;;;;;3.33;2.50;;;22.10;57.20;;;;;;5076203;28;20028;-42
2022/06/22 05:51:12;;;;;;;2.60;2.40;;;22.10;57.30;;;;;;5072808;28;20074;-41
2022/06/22 05:53:55;;;;;;;2.75;2.53;;;22.10;57.30;;;;;;5046998;28;20063;-42
2022/06/22 05:56:52;;;;;;;3.05;2.78;;;22.10;57.40;;;;;;5086868;28;20033;-44
2022/06/22 05:59:34;;;;;;;3.00;2.70;;;22.10;57.50;;;;;;5045794;28;20032;-41
2022/06/22 06:02:11;;;;;;;3.03;2.72;;;22.10;57.60;;;;;;5077591;28;20052;-43
2022/06/22 06:04:47;;;;;;;2.53;2.30;;;22.10;57.60;;;;;;5078079;28;20033;-43
2022/06/22 06:07:32;;;;;;;2.47;2.28;;;22.10;57.60;;;;;;5079544;28;20473;-43
2022/06/22 06:09:59;;;;;;;2.95;2.55;;;22.10;57.20;;;;;;5079289;28;20031;-40
2022/06/22 06:12:33;;;;;;;2.78;2.55;;;22.10;57.30;;;;;;5095949;28;20040;-44
2022/06/22 06:15:02;;;;;;;2.80;2.50;;;22.00;57.30;;;;;;5081114;28;20037;-43
2022/06/22 06:17:35;;;;;;;2.80;2.50;;;22.00;57.30;;;;;;5078180;28;20066;-44
2022/06/22 06:20:02;;;;;;;2.88;2.28;;;22.00;57.20;;;;;;5080678;28;20088;-42
2022/06/22 06:22:31;;;;;;;2.55;2.35;;;22.00;57.30;;;;;;5053931;28;20029;-43
2022/06/22 06:28:02;;;;;;;3.10;2.08;;;22.00;57.30;;;;;;5076094;28;20088;-42
2022/06/22 06:30:31;;;;;;;2.72;2.10;;;22.00;57.40;;;;;;5061784;28;20032;-43
2022/06/22 06:33:13;;;;;;;2.40;2.20;;;22.00;57.40;;;;;;5074443;28;20028;-42
2022/06/22 06:35:46;;;;;;;2.70;2.45;;;22.00;57.50;;;;;;5078022;28;20044;-42
2022/06/22 06:38:41;;;;;;;2.60;2.40;;;22.00;57.50;;;;;;5076931;28;20055;-43
2022/06/22 06:41:24;;;;;;;2.63;2.25;;;22.00;57.60;;;;;;5077839;28;20037;-42
2022/06/22 06:44:04;;;;;;;2.50;2.30;;;22.00;57.70;;;;;;5079478;28;20051;-43
2022/06/22 06:46:38;;;;;;;2.53;2.33;;;22.00;57.80;;;;;;5074011;28;20044;-43
2022/06/22 06:49:10;;;;;;;2.55;2.20;;;22.00;57.70;;;;;;5077780;28;20029;-41
2022/06/22 06:51:38;;;;;;;2.97;2.22;;;22.00;57.40;;;;;;5074823;28;20426;-41
2022/06/22 06:54:14;;;;;;;2.67;2.47;;;22.00;57.50;;;;;;5080165;28;20024;-41
2022/06/22 06:57:18;;;;;;;2.67;2.47;;;22.00;57.50;;;;;;5075880;28;20078;-41
2022/06/22 06:59:46;;;;;;;2.70;2.33;;;22.00;58.00;;;;;;5068503;28;20072;-42
2022/06/22 07:02:28;;;;;;;2.50;2.30;;;22.00;57.40;;;;;;5073664;28;20043;-43
2022/06/22 07:04:54;;;;;;;2.72;2.50;;;22.00;57.40;;;;;;5073052;28;20041;-42
2022/06/22 07:07:26;;;;;;;2.60;2.28;;;22.00;57.60;;;;;;5079273;28;20029;-41
2022/06/22 07:09:53;;;;;;;2.60;2.40;;;22.00;57.60;;;;;;5080245;28;20074;-43
2022/06/22 07:12:40;;;;;;;2.53;2.13;;;22.00;57.60;;;;;;5077243;28;20029;-41
2022/06/22 07:15:09;;;;;;;2.47;2.20;;;22.00;57.60;;;;;;5078859;28;20040;-42
2022/06/22 07:17:36;;;;;;;2.47;2.28;;;22.00;57.60;;;;;;5074704;28;20060;-43
2022/06/22 07:20:10;;;;;;;2.28;2.08;;;22.00;57.60;;;;;;5075448;28;20070;-42
2022/06/22 07:23:00;;;;;;;2.83;2.20;;;22.00;57.70;;;;;;5061700;28;20037;-42
2022/06/22 07:25:35;;;;;;;2.38;2.17;;;22.00;57.70;;;;;;5075408;28;20690;-42
2022/06/22 07:28:12;;;;;;;2.40;2.20;;;22.00;57.70;;;;;;5066697;28;20053;-43
2022/06/22 07:30:43;;;;;;;2.55;2.35;;;22.00;57.80;;;;;;5075285;28;20036;-43
2022/06/22 07:33:18;;;;;;;2.60;2.40;;;22.00;57.80;;;;;;5072722;28;20133;-42
2022/06/22 07:35:55;;;;;;;2.67;2.30;;;22.00;57.80;;;;;;5075080;28;20024;-42
2022/06/22 07:38:41;;;;;;;2.30;2.10;;;22.00;57.80;;;;;;5078280;28;20021;-42
2022/06/22 07:41:19;;;;;;;2.45;2.25;;;22.00;57.90;;;;;;5078471;28;20028;-43
2022/06/22 07:43:50;;;;;;;3.42;2.47;;;22.00;57.90;;;;;;5075745;28;20055;-46
2022/06/22 07:46:47;;;;;;;2.53;2.30;;;22.00;58.00;;;;;;5076126;28;20036;-43
2022/06/22 07:49:43;;;;;;;3.25;2.30;;;22.00;58.10;;;;;;5076637;28;20502;-39
2022/06/22 07:52:13;;;;;;;3.05;2.60;;;22.00;58.40;;;;;;5076605;28;20131;-40
2022/06/22 07:54:43;;;;;;;2.53;2.33;;;22.00;58.50;;;;;;5068880;28;20037;-38
2022/06/22 07:57:38;;;;;;;4.63;2.60;;;22.00;58.60;;;;;;5077447;28;20037;-40
2022/06/22 08:00:40;;;;;;;3.17;2.75;;;22.00;58.70;;;;;;5077767;28;20096;-41
2022/06/22 08:03:45;;;;;;;2.60;2.40;;;22.00;58.60;;;;;;5014941;28;20034;-43
2022/06/22 08:06:14;;;;;;;2.88;2.58;;;22.00;58.60;;;;;;4942961;29;20047;-40
2022/06/22 08:08:45;;;;;;;7.63;3.83;;;22.00;59.10;;;;;;4945636;29;20074;-38
2022/06/22 08:11:21;;;;;;;5.57;3.28;;;22.00;60.10;;;;;;4949386;29;20074;-41
2022/06/22 08:13:57;;;;;;;6.82;4.10;;;22.00;60.30;;;;;;4942963;29;20043;-40
2022/06/22 08:16:29;;;;;;;6.95;3.50;;;21.90;59.70;;;;;;4943826;29;20580;-39
2022/06/22 08:18:55;;;;;;;5.57;3.55;;;22.00;59.30;;;;;;4939399;29;20525;-38
2022/06/22 08:21:21;;;;;;;4.70;3.50;;;22.00;58.90;;;;;;4949091;29;20043;-36
2022/06/22 08:23:47;;;;;;;4.60;3.47;;;22.00;58.80;;;;;;4945357;29;20798;-37
2022/06/22 08:26:20;;;;;;;4.15;3.35;;;22.00;58.70;;;;;;4945153;29;20059;-37
2022/06/22 08:28:46;;;;;;;4.75;3.67;;;22.00;58.80;;;;;;4931476;29;20036;-36
2022/06/22 08:31:12;;;;;;;5.22;3.35;;;22.00;58.90;;;;;;4946155;29;20040;-36
2022/06/22 08:33:41;;;;;;;7.13;3.35;;;22.10;58.90;;;;;;4937020;29;20048;-36
2022/06/22 08:36:20;;;;;;;7.70;4.30;;;22.00;58.70;;;;;;4953343;28;20487;-36
2022/06/22 08:38:57;;;;;;;8.02;4.15;;;22.00;59.00;;;;;;4999632;28;20026;-36
2022/06/22 08:41:44;;;;;;;6.10;4.28;;;22.00;59.30;;;;;;5073043;28;20041;-36
2022/06/22 08:44:25;;;;;;;6.75;4.30;;;22.10;59.30;;;;;;5077296;28;20039;-36
2022/06/22 08:47:00;;;;;;;6.97;4.32;;;22.10;59.30;;;;;;5077844;28;20029;-37
2022/06/22 08:49:53;;;;;;;6.53;4.40;;;22.10;59.00;;;;;;5073371;28;20060;-37
2022/06/22 08:52:29;;;;;;;7.18;4.55;;;22.10;58.30;;;;;;5076427;28;20029;-34
2022/06/22 08:55:19;;;;;;;7.22;4.53;;;22.00;58.00;;;;;;5073365;28;20025;-37
2022/06/22 08:57:59;;;;;;;5.70;4.45;;;22.10;58.10;;;;;;5079255;28;20039;-37
2022/06/22 09:00:46;;;;;;;5.90;3.90;;;22.00;58.30;;;;;;5072546;28;20767;-36
2022/06/22 09:03:37;;;;;;;4.88;4.07;;;22.00;58.50;;;;;;5072531;28;20041;-36
2022/06/22 09:06:25;;;;;;;5.88;4.00;;;22.00;58.60;;;;;;5071707;28;20059;-37
2022/06/22 09:09:20;;;;;;;5.28;4.20;;;22.00;58.60;;;;;;5075152;28;20036;-37
2022/06/22 09:12:01;;;;;;;5.60;3.95;;;22.00;58.60;;;;;;5034724;28;20035;-36
2022/06/22 09:14:31;;;;;;;5.05;3.92;;;22.00;58.60;;;;;;5073232;28;20036;-36
2022/06/22 09:17:09;;;;;;;5.53;4.00;;;22.00;58.50;;;;;;5076443;28;20088;-36
2022/06/22 09:20:06;;;;;;;4.95;3.53;;;22.00;58.50;;;;;;5072265;28;20032;-36
2022/06/22 09:22:50;;;;;;;7.15;3.80;;;22.10;58.60;;;;;;5073398;28;20025;-37
2022/06/22 09:25:25;;;;;;;5.18;3.90;;;22.00;58.60;;;;;;5077593;28;20037;-36
2022/06/22 09:28:24;;;;;;;4.60;3.60;;;22.00;58.60;;;;;;5073765;28;20130;-37
2022/06/22 09:31:09;;;;;;;5.30;3.85;;;22.00;58.70;;;;;;5048835;28;20044;-37
2022/06/22 09:33:49;;;;;;;4.13;3.45;;;22.00;58.70;;;;;;5080671;28;20036;-37
2022/06/22 09:36:31;;;;;;;4.60;3.35;;;22.00;58.70;;;;;;5079113;28;20040;-37
2022/06/22 09:39:06;;;;;;;5.97;3.78;;;22.00;59.30;;;;;;5078143;28;20024;-36
2022/06/22 09:41:53;;;;;;;4.00;3.60;;;22.00;58.80;;;;;;5065764;28;20036;-37
2022/06/22 09:44:52;;;;;;;4.03;3.45;;;22.00;58.90;;;;;;5076551;28;20020;-37
2022/06/22 09:47:25;;;;;;;4.63;3.65;;;22.00;59.00;;;;;;5075902;28;20083;-37
2022/06/22 09:49:57;;;;;;;3.55;3.08;;;22.00;59.30;;;;;;5080771;28;20037;-38
2022/06/22 09:52:29;;;;;;;4.18;3.28;;;22.00;59.40;;;;;;5078110;28;20070;-37
2022/06/22 09:58:25;;;;;;;4.18;3.58;;;22.00;59.60;;;;;;5080652;28;20586;-36
2022/06/22 10:01:02;;;;;;;4.78;3.50;;;22.00;59.60;;;;;;5078739;28;20024;-37
2022/06/22 10:04:10;;;;;;;2.73;2.50;;;22.00;59.70;;;;;;5073564;28;20040;-37
2022/06/22 10:07:01;;;;;;;4.10;3.55;;;22.10;59.70;;;;;;5073793;28;20064;-37
2022/06/22 10:10:07;;;;;;;3.67;3.13;;;22.00;59.70;;;;;;5073408;28;20056;-37
2022/06/22 10:13:09;;;;;;;6.25;3.22;;;22.00;59.90;;;;;;5077585;28;20036;-37
2022/06/22 10:16:08;;;;;;;4.90;3.00;;;22.00;60.20;;;;;;5079289;28;20057;-37
2022/06/22 10:18:41;;;;;;;;;;;22.10;60.40;;;;;;5080432;28;20033;-36
2022/06/22 10:21:13;;;;;;;5.28;3.03;;;22.00;60.10;;;;;;5077925;28;19909;-35
2022/06/22 10:23:39;;;;;;;3.72;3.17;;;22.10;60.30;;;;;;5076879;28;20091;-38
2022/06/22 10:26:20;;;;;;;4.00;3.20;;;22.00;60.10;;;;;;5078570;28;20591;-36
2022/06/22 10:29:06;;;;;;;4.90;3.35;;;22.00;60.10;;;;;;5079829;28;20031;-36
2022/06/22 10:32:04;;;;;;;3.65;3.03;;;22.00;60.10;;;;;;5075302;28;20046;-37
2022/06/22 10:35:14;;;;;;;3.40;2.67;;;22.00;60.00;;;;;;5073604;28;20039;-37
2022/06/22 10:38:03;;;;;;;4.85;3.15;;;22.10;60.00;;;;;;5076836;28;20092;-37
2022/06/22 10:46:57;;;;;;;3.38;2.92;;;22.10;59.80;;;;;;5079162;28;20051;-36
2022/06/22 10:49:48;;;;;;;3.20;2.90;;;22.10;59.70;;;;;;5078460;28;20315;-37
2022/06/22 10:52:19;;;;;;;3.50;3.08;;;22.10;59.70;;;;;;5075568;28;20028;-37
2022/06/22 10:55:07;;;;;;;3.85;3.00;;;22.10;59.70;;;;;;5077077;28;20088;-36
2022/06/22 10:57:55;;;;;;;4.10;3.07;;;22.10;59.70;;;;;;5077015;28;20035;-36
2022/06/22 11:00:47;;;;;;;4.67;3.10;;;22.00;59.80;;;;;;5077743;28;20032;-36
2022/06/22 11:03:35;;;;;;;4.25;2.72;;;22.10;60.00;;;;;;5076876;28;20066;-39
2022/06/22 11:06:01;;;;;;;3.20;2.63;;;22.10;60.00;;;;;;5078162;28;20041;-36
2022/06/22 11:08:55;;;;;;;3.10;2.67;;;22.10;59.90;;;;;;5077153;28;20028;-37
2022/06/22 11:12:04;;;;;;;3.08;2.75;;;22.10;59.80;;;;;;5073987;28;20088;-37
2022/06/22 11:14:41;;;;;;;2.97;2.67;;;22.10;59.80;;;;;;5077977;28;20405;-38
2022/06/22 11:17:13;;;;;;;4.45;2.90;;;22.10;59.80;;;;;;5078042;28;20052;-37
2022/06/22 11:20:04;;;;;;;3.40;2.75;;;22.10;59.80;;;;;;5071838;28;20053;-37
2022/06/22 11:23:00;;;;;;;3.67;2.70;;;22.10;59.70;;;;;;5071311;28;20037;-37
2022/06/22 11:32:02;;;;;;;2.50;2.22;;;22.10;59.70;;;;;;4953494;28;19976;-37
2022/06/22 11:34:34;;;;;;;;;;;22.10;59.80;;;;;;4987189;28;20029;-37
2022/06/22 11:37:14;;;;;;;2.90;2.60;;;22.10;59.80;;;;;;4983430;28;19914;-37
2022/06/22 11:39:49;;;;;;;3.03;2.72;;;22.10;59.80;;;;;;4954340;28;20104;-37
2022/06/22 11:42:37;;;;;;;2.70;2.50;;;22.10;59.90;;;;;;4983828;28;20432;-37
2022/06/22 11:45:51;;;;;;;3.28;2.47;;;22.10;59.80;;;;;;4982843;28;20054;-37
2022/06/22 11:48:32;;;;;;;3.17;2.85;;;22.10;59.80;;;;;;4984669;28;20101;-37
2022/06/22 11:51:18;;;;;;;3.55;3.13;;;22.10;60.20;;;;;;4983132;28;20524;-37
2022/06/22 11:54:11;;;;;;;2.75;2.45;;;22.00;60.60;;;;;;4970830;28;20034;-37
2022/06/22 11:56:37;;;;;;;3.80;2.90;;;22.00;60.70;;;;;;4983268;28;20022;-37
2022/06/22 11:59:35;;;;;;;3.17;2.80;;;22.00;60.70;;;;;;4983106;28;20050;-36
2022/06/22 12:02:52;;;;;;;3.42;3.10;;;22.10;60.60;;;;;;4986297;28;20034;-37
2022/06/22 12:05:23;;;;;;;3.13;2.65;;;22.00;60.60;;;;;;5000345;28;20049;-37
2022/06/22 12:08:31;;;;;;;2.92;2.67;;;22.00;60.60;;;;;;5017883;28;20030;-37
2022/06/22 12:11:09;;;;;;;3.30;2.80;;;22.00;60.60;;;;;;5018251;28;20038;-38
2022/06/22 12:17:03;;;;;;;3.80;3.20;;;22.00;60.70;;;;;;5018133;28;20077;-36
2022/06/22 12:20:05;;;;;;;3.95;2.72;;;22.00;61.20;;;;;;5018951;28;20109;-37
2022/06/22 12:22:40;;;;;;;3.42;3.00;;;22.00;61.20;;;;;;5015651;28;20034;-37
2022/06/22 12:25:30;;;;;;;3.65;2.90;;;22.00;61.20;;;;;;5001123;28;20048;-37
2022/06/22 12:28:08;;;;;;;3.72;3.10;;;22.00;61.20;;;;;;5003631;28;21479;-37
2022/06/22 12:30:40;;;;;;;3.17;2.88;;;22.00;61.20;;;;;;5016145;28;20029;-36
2022/06/22 12:33:40;;;;;;;3.35;3.05;;;22.00;61.10;;;;;;5016504;28;20053;-37
2022/06/22 12:36:11;;;;;;;3.25;2.90;;;22.00;61.10;;;;;;4976710;28;20050;-37
2022/06/22 12:39:03;;;;;;;2.95;2.63;;;22.00;61.80;;;;;;5001287;28;20026;-37
2022/06/22 12:41:35;;;;;;;3.38;2.78;;;22.00;61.10;;;;;;5056759;28;20048;-37
2022/06/22 12:44:23;;;;;;;3.03;2.70;;;22.00;61.20;;;;;;5071664;28;20033;-37
2022/06/22 12:46:53;;;;;;;2.92;2.63;;;22.10;61.20;;;;;;5068818;28;20039;-37
2022/06/22 12:49:32;;;;;;;3.63;2.30;;;22.10;61.10;;;;;;5076235;28;20027;-37
2022/06/22 12:52:10;;;;;;;3.55;2.90;;;22.10;61.10;;;;;;5078442;28;20020;-37
2022/06/22 12:54:41;;;;;;;;;;;22.20;61.10;;;;;;5061767;28;20033;-37
2022/06/22 12:57:13;;;;;;;2.92;2.63;;;22.20;61.10;;;;;;5070852;28;19909;-36
2022/06/22 12:59:39;;;;;;;2.72;2.45;;;22.10;61.10;;;;;;5071870;28;20025;-37
2022/06/22 13:02:06;;;;;;;2.85;2.50;;;22.10;61.20;;;;;;5071809;28;20115;-36
2022/06/22 13:04:35;;;;;;;3.35;2.78;;;22.10;61.40;;;;;;5074425;28;20028;-37
2022/06/22 13:07:05;;;;;;;2.95;2.65;;;22.10;61.70;;;;;;5075493;28;20043;-36
2022/06/22 13:09:31;;;;;;;3.05;2.55;;;22.10;61.80;;;;;;5076147;28;20025;-37
2022/06/22 13:11:58;;;;;;;2.73;2.43;;;22.10;61.80;;;;;;5071484;28;20047;-37
2022/06/22 13:14:27;;;;;;;2.45;2.25;;;22.10;61.80;;;;;;5047652;28;20120;-37
2022/06/22 13:17:08;;;;;;;2.85;2.55;;;22.10;61.90;;;;;;5078748;28;20040;-37
2022/06/22 13:19:39;;;;;;;2.83;2.10;;;22.10;62.10;;;;;;5078082;28;20029;-37
2022/06/22 13:22:11;;;;;;;2.75;2.20;;;22.10;62.10;;;;;;5073546;28;20155;-36
2022/06/22 13:25:18;;;;;;;3.33;2.28;;;22.20;62.30;;;;;;5074018;28;20096;-36
2022/06/22 13:28:24;;;;;;;2.50;2.30;;;22.20;62.30;;;;;;5076104;28;20047;-36
2022/06/22 13:31:24;;;;;;;2.78;2.20;;;22.20;62.30;;;;;;5073306;28;20016;-36
2022/06/22 13:33:56;;;;;;;2.63;2.25;;;22.30;62.40;;;;;;5015282;28;20100;-37
2022/06/22 13:36:35;;;;;;;2.53;2.10;;;22.30;62.50;;;;;;5016767;28;20042;-37
2022/06/22 13:39:34;;;;;;;2.83;2.45;;;22.30;62.50;;;;;;4999621;28;20029;-37
2022/06/22 13:42:38;;;;;;;2.33;2.03;;;22.20;62.80;;;;;;4978066;28;20077;-36
2022/06/22 13:45:25;;;;;;;2.90;2.45;;;22.20;63.10;;;;;;4988360;28;20081;-37
2022/06/22 13:48:09;;;;;;;2.58;2.25;;;22.20;63.40;;;;;;5015545;28;20028;-36
2022/06/22 13:51:32;;;;;;;2.53;2.30;;;22.30;63.60;;;;;;5013388;28;20121;-37
2022/06/22 13:54:13;;;;;;;2.60;2.30;;;22.30;63.90;;;;;;5008380;28;20033;-39
2022/06/22 13:57:01;;;;;;;2.17;1.92;;;22.30;64.00;;;;;;5001004;28;20041;-38
2022/06/22 13:59:36;;;;;;;2.45;2.25;;;22.40;64.20;;;;;;5014989;28;20036;-37
2022/06/22 14:02:25;;;;;;;2.17;1.98;;;22.40;64.50;;;;;;5001019;28;20624;-37
2022/06/22 14:05:25;;;;;;;2.40;2.05;;;22.40;64.50;;;;;;5002436;28;20042;-37
2022/06/22 14:08:16;;;;;;;2.60;2.22;;;22.40;64.80;;;;;;4990018;28;20781;-37
2022/06/22 14:11:15;;;;;;;2.38;2.17;;;22.50;65.00;;;;;;5074153;28;20127;-36
2022/06/22 14:14:09;;;;;;;3.28;2.28;;;22.50;65.30;;;;;;5053048;28;20044;-37
2022/06/22 14:16:49;;;;;;;2.35;2.10;;;22.50;65.30;;;;;;5070334;28;20660;-37